Liberty, Kansas
Current Conditions -  °F | °C
As of 4:52 PM on Wednesday 26 Nov 2014 (Local Time) from KCFV Reporting Station
Broken Clouds Broken Clouds  
Wind Chill:   Ceiling: 4700
Heat Index:   Visibility: 10mi
Dew Point: -3°   Wind: 21mph
Humidity: 49%   Direction: 330°NNW
Pressure: 30.23"   Gusts: 25mph
Location:  37.16°N, 95.59°W
Report Text: KCFV 262252Z AUTO 33018G22KT 10SM BKN047 07/M03 A3023 RMK AO2 PK WND 32029/2215 SLP241 T00671033
Loading
Personal Weather Stations






























Interactive Weather Map New forecast layout! Learn more

10-Day Weather Forecast

Advertisements
Track Severe Weather on mobile